Startpagina
METAR-TAF:

METAR-TAF

Vliegvelden :

Łódź, Polen

Luchthaven Łódź-Lublinek

breedte: 51-43-19N, lengte: 019-23-53E, hoogte: 184 m

Actueel weer

Dit bericht is 38 minuten geleden gemaakt, om 00:00 UTC
Wind 6 kt uit het noordoosten
Temperatuur -5°C
Vochtigheid 79%
Druk 1024 hPa
Zicht 10 km of meer
geen wolken onder 1500 m en geen cumulonimbus

METAR: EPLL 220000Z 05006KT CAVOK M05/M08 Q1024

Tijdstip: 01:38 (00:38 UTC)

Verwachting

Dit bericht is 1 uur en het 8 minuten geleden gemaakt, om 23:30 UTC
Verwachting geldig van 22 om 00 UTC tot 22 om 24 UTC
Wind 8 kt uit het noordoosten
Zicht 10 km of meer
geen wolken onder 1500 m en geen cumulonimbus

TAF: EPLL 212330Z 2200/2224 05008KT CAVOK

Waarnemingen en weersverwachtingen van meer dan 4000 vliegvelden (METAR en TAF).

De beschikbare stations zijn de gele en rode punten op de kaart.

Ga met uw muis naar het station om de naam te zien.

Klik dan om waarnemingen en weersverwachtingen te zien.

kaart wijzigen: klik op de groene knoppen met een zwart kruis om in te zoomen, op de groene knop met een streepje om uit te zoomen of op de groene pijlen voor aangrenzende kaarten.


METAR-TAF: